createdAt,value
2023-04-19T00:03:15.751Z,8.90
2023-04-19T00:06:58.509Z,8.80
2023-04-19T00:10:40.425Z,8.80
2023-04-19T00:14:22.175Z,8.80
2023-04-19T00:18:04.063Z,8.70
2023-04-19T00:21:45.833Z,8.70
2023-04-19T00:25:29.390Z,8.80
2023-04-19T00:29:11.145Z,8.70
2023-04-19T00:32:53.451Z,8.70
2023-04-19T00:36:35.419Z,8.70
2023-04-19T00:40:17.165Z,8.80
2023-04-19T00:43:58.915Z,8.90
2023-04-19T00:47:41.352Z,8.90
2023-04-19T00:51:23.568Z,9.00
2023-04-19T00:55:07.069Z,9.00
2023-04-19T00:58:49.315Z,9.00
2023-04-19T01:02:31.404Z,9.10
2023-04-19T01:06:13.497Z,9.10
2023-04-19T01:09:55.420Z,9.10
2023-04-19T01:13:37.358Z,9.10
2023-04-19T01:17:22.281Z,9.00
2023-04-19T01:21:05.054Z,9.00
2023-04-19T01:24:46.834Z,9.00
2023-04-19T01:28:28.987Z,8.90
2023-04-19T01:32:10.818Z,8.90
2023-04-19T01:35:52.526Z,8.90
2023-04-19T01:39:34.339Z,8.90
2023-04-19T01:43:17.647Z,8.90
2023-04-19T01:46:59.419Z,8.90
2023-04-19T01:50:41.203Z,8.90
2023-04-19T01:54:22.942Z,8.90
2023-04-19T01:58:04.676Z,8.90
2023-04-19T02:01:46.537Z,8.90
2023-04-19T02:05:28.287Z,8.80
2023-04-19T02:09:10.078Z,8.80
2023-04-19T02:12:51.805Z,8.80
2023-04-19T02:16:35.621Z,8.70
2023-04-19T02:20:17.893Z,8.70
2023-04-19T02:23:59.743Z,8.70
2023-04-19T02:27:41.465Z,8.60
2023-04-19T02:31:23.397Z,8.60
2023-04-19T02:35:05.644Z,8.50
2023-04-19T02:38:47.402Z,8.50
2023-04-19T02:42:29.138Z,8.60
2023-04-19T02:46:10.981Z,8.60
2023-04-19T02:49:52.743Z,8.60
2023-04-19T02:53:36.958Z,8.70
2023-04-19T02:57:18.700Z,8.70
2023-04-19T03:01:00.656Z,8.80
2023-04-19T03:04:43.405Z,8.90
2023-04-19T03:08:25.200Z,8.90
2023-04-19T03:12:08.015Z,8.90
2023-04-19T03:15:50.891Z,8.90
2023-04-19T03:19:32.617Z,9.00
2023-04-19T03:23:14.373Z,8.90
2023-04-19T03:26:56.866Z,8.90
2023-04-19T03:30:38.615Z,8.80
2023-04-19T03:34:20.375Z,8.80
2023-04-19T03:38:02.183Z,8.70
2023-04-19T03:41:43.935Z,8.70
2023-04-19T03:45:25.816Z,8.70
2023-04-19T03:49:07.536Z,8.70
2023-04-19T03:52:49.464Z,8.70
2023-04-19T03:56:31.211Z,8.70
2023-04-19T04:00:13.455Z,8.70
2023-04-19T04:03:55.772Z,8.70
2023-04-19T04:07:37.644Z,8.70
2023-04-19T04:11:19.460Z,8.60
2023-04-19T04:15:01.303Z,8.60
2023-04-19T04:18:43.138Z,8.50
2023-04-19T04:22:24.915Z,8.50
2023-04-19T04:26:09.863Z,8.40
2023-04-19T04:29:51.639Z,8.40
2023-04-19T04:33:33.405Z,8.40
2023-04-19T04:37:16.295Z,8.30
2023-04-19T04:40:59.357Z,8.20
2023-04-19T04:44:42.190Z,8.20
2023-04-19T04:48:24.349Z,8.30
2023-04-19T04:52:06.590Z,8.20
2023-04-19T04:55:48.362Z,8.20
2023-04-19T04:59:30.163Z,8.20
2023-04-19T05:03:12.071Z,8.20
2023-04-19T05:06:53.938Z,8.10
2023-04-19T05:10:36.009Z,8.20
2023-04-19T05:14:17.962Z,8.20
2023-04-19T05:17:59.866Z,8.20
2023-04-19T05:21:41.646Z,8.30
2023-04-19T05:25:23.442Z,8.30
2023-04-19T05:29:05.396Z,8.40
2023-04-19T05:32:47.523Z,8.40
2023-04-19T05:36:29.697Z,8.40
2023-04-19T05:40:11.752Z,8.40
2023-04-19T05:43:53.501Z,8.30
2023-04-19T05:47:35.490Z,8.30
2023-04-19T05:51:18.944Z,8.30
2023-04-19T05:55:01.482Z,8.30
2023-04-19T05:58:43.288Z,8.30
2023-04-19T06:02:25.131Z,8.40
2023-04-19T06:06:07.224Z,8.50
2023-04-19T06:09:49.240Z,8.50
2023-04-19T06:13:31.232Z,8.50
2023-04-19T06:17:13.004Z,8.60
2023-04-19T06:20:54.958Z,8.60
2023-04-19T06:24:36.684Z,8.60
2023-04-19T06:28:18.916Z,8.70
2023-04-19T06:32:00.762Z,8.70
2023-04-19T06:35:42.513Z,8.80
2023-04-19T06:39:24.262Z,8.90
2023-04-19T06:43:06.174Z,9.00
2023-04-19T06:46:48.070Z,9.00
2023-04-19T06:50:29.990Z,9.10
2023-04-19T06:54:11.807Z,9.10
2023-04-19T06:57:53.562Z,9.20
2023-04-19T07:01:35.482Z,9.30
2023-04-19T07:05:17.400Z,9.40
2023-04-19T07:08:59.132Z,9.40
2023-04-19T07:12:40.866Z,9.50
2023-04-19T07:16:22.782Z,9.50
2023-04-19T07:20:06.596Z,9.60
2023-04-19T07:23:49.482Z,9.70
2023-04-19T07:27:31.212Z,9.80
2023-04-19T07:31:16.850Z,9.80
2023-04-19T07:34:58.595Z,9.90
2023-04-19T07:38:40.312Z,9.90
2023-04-19T07:42:22.057Z,10.00
2023-04-19T07:46:10.943Z,10.00
2023-04-19T07:49:53.628Z,10.10
2023-04-19T07:53:35.407Z,10.10
2023-04-19T07:57:17.373Z,10.10
2023-04-19T08:00:59.220Z,10.20
2023-04-19T08:04:41.265Z,10.30
2023-04-19T08:08:24.653Z,10.30
2023-04-19T08:12:06.686Z,10.40
2023-04-19T08:19:33.428Z,10.70
2023-04-19T08:23:24.147Z,10.80
2023-04-19T08:27:10.491Z,10.90
2023-04-19T08:30:52.238Z,11.00
2023-04-19T08:34:37.463Z,11.10
2023-04-19T08:38:19.302Z,11.20
2023-04-19T08:42:11.104Z,11.40
2023-04-19T08:46:00.394Z,11.50
2023-04-19T08:49:43.844Z,11.50
2023-04-19T08:53:29.650Z,11.60
2023-04-19T08:57:12.505Z,11.70
2023-04-19T09:00:54.236Z,11.80
2023-04-19T09:04:37.297Z,11.90
2023-04-19T09:08:25.112Z,12.10
2023-04-19T09:12:20.369Z,12.40
2023-04-19T09:16:02.434Z,12.80
2023-04-19T09:19:49.284Z,13.20
2023-04-19T09:23:31.060Z,13.50
2023-04-19T09:27:13.024Z,13.80
2023-04-19T09:31:03.498Z,14.10
2023-04-19T09:34:59.897Z,14.50
2023-04-19T09:38:49.264Z,15.00
2023-04-19T09:46:33.683Z,15.70
2023-04-19T09:50:23.983Z,15.90
2023-04-19T09:54:07.180Z,16.20
2023-04-19T09:57:49.118Z,16.40
2023-04-19T10:01:39.365Z,16.60
2023-04-19T10:05:25.664Z,17.00
2023-04-19T10:09:08.555Z,17.10
2023-04-19T10:16:39.335Z,17.30
2023-04-19T10:20:27.787Z,17.70
2023-04-19T10:24:12.595Z,18.00
2023-04-19T10:27:54.387Z,18.40
2023-04-19T10:31:36.143Z,19.20
2023-04-19T10:35:23.432Z,20.00
2023-04-19T10:39:25.093Z,20.50
2023-04-19T10:43:17.807Z,20.70
2023-04-19T10:46:59.964Z,20.80
2023-04-19T10:51:01.238Z,21.20
2023-04-19T10:54:42.945Z,21.60
2023-04-19T10:58:24.685Z,21.70
2023-04-19T11:02:28.292Z,22.20
2023-04-19T11:06:18.882Z,22.20
2023-04-19T11:10:00.745Z,22.20
2023-04-19T11:13:43.445Z,22.50
2023-04-19T11:17:28.453Z,22.50
2023-04-19T11:21:14.815Z,22.50
2023-04-19T11:24:56.697Z,22.90
2023-04-19T11:28:39.204Z,22.80
2023-04-19T11:32:22.513Z,22.20
2023-04-19T11:36:11.212Z,21.70
2023-04-19T11:39:52.974Z,21.10
2023-04-19T11:43:38.160Z,20.50
2023-04-19T11:47:20.413Z,20.30
2023-04-19T11:51:02.977Z,20.40
2023-04-19T11:54:46.799Z,20.40
2023-04-19T11:58:29.922Z,20.50
2023-04-19T12:02:12.649Z,20.60
2023-04-19T12:06:08.897Z,20.70
2023-04-19T12:09:50.923Z,20.80
2023-04-19T12:13:33.258Z,20.60
2023-04-19T12:17:15.850Z,20.50
2023-04-19T12:20:59.465Z,20.60
2023-04-19T12:24:42.969Z,20.60
2023-04-19T12:28:24.729Z,20.50
2023-04-19T12:32:07.105Z,20.60
2023-04-19T12:35:49.005Z,20.40
2023-04-19T12:39:31.030Z,20.20
2023-04-19T12:43:12.772Z,20.30
2023-04-19T12:46:57.569Z,20.80
2023-04-19T12:50:39.611Z,20.90
2023-04-19T12:54:21.314Z,20.80
2023-04-19T12:58:03.113Z,20.50
2023-04-19T13:01:44.939Z,20.10
2023-04-19T13:05:26.740Z,19.80
2023-04-19T13:09:14.190Z,19.60
2023-04-19T13:12:57.161Z,19.30
2023-04-19T13:16:39.029Z,19.20
2023-04-19T13:20:21.007Z,19.00
2023-04-19T13:24:02.728Z,18.80
2023-04-19T13:27:44.528Z,18.80
2023-04-19T13:31:27.120Z,18.70
2023-04-19T13:35:09.366Z,18.70
2023-04-19T13:38:51.234Z,18.60
2023-04-19T13:42:32.980Z,18.50
2023-04-19T13:46:15.307Z,18.40
2023-04-19T13:49:57.198Z,18.30
2023-04-19T13:53:40.786Z,18.20
2023-04-19T13:57:22.668Z,18.20
2023-04-19T14:01:04.561Z,18.30
2023-04-19T14:04:46.449Z,18.20
2023-04-19T14:08:28.217Z,18.20
2023-04-19T14:12:10.434Z,18.30
2023-04-19T14:15:52.190Z,18.30
2023-04-19T14:19:33.955Z,18.40
2023-04-19T14:23:15.765Z,18.40
2023-04-19T14:30:45.281Z,18.30
2023-04-19T14:34:27.261Z,18.30
2023-04-19T14:38:08.968Z,18.30
2023-04-19T14:41:51.343Z,18.30
2023-04-19T14:45:33.101Z,18.30
2023-04-19T14:49:15.039Z,18.20
2023-04-19T14:52:56.900Z,18.20
2023-04-19T14:56:38.934Z,18.20
2023-04-19T15:00:20.910Z,18.30
2023-04-19T15:04:02.819Z,18.30
2023-04-19T15:07:44.752Z,18.30
2023-04-19T15:11:26.509Z,18.30
2023-04-19T15:15:08.623Z,18.30
2023-04-19T15:18:50.440Z,18.40
2023-04-19T15:22:35.222Z,18.40
2023-04-19T15:26:17.301Z,18.40
2023-04-19T15:29:59.046Z,18.40
2023-04-19T15:33:40.809Z,18.50
2023-04-19T15:37:22.740Z,18.60
2023-04-19T15:41:04.807Z,18.60
2023-04-19T15:44:46.557Z,18.50
2023-04-19T15:48:28.713Z,18.50
2023-04-19T15:52:10.407Z,18.50
2023-04-19T15:55:53.310Z,18.50
2023-04-19T15:59:35.980Z,18.50
2023-04-19T16:03:17.985Z,18.60
2023-04-19T16:06:59.828Z,18.70
2023-04-19T16:10:41.580Z,18.70
2023-04-19T16:14:24.393Z,18.60
2023-04-19T16:18:06.465Z,18.60
2023-04-19T16:21:48.365Z,18.70
2023-04-19T16:25:31.164Z,18.70
2023-04-19T16:29:12.889Z,18.70
2023-04-19T16:32:58.678Z,18.70
2023-04-19T16:36:41.964Z,18.70
2023-04-19T16:40:23.940Z,18.70
2023-04-19T16:44:07.877Z,18.60
2023-04-19T16:47:49.695Z,18.60
2023-04-19T16:51:31.812Z,18.70
2023-04-19T16:55:14.916Z,18.60
2023-04-19T16:58:56.656Z,18.60
2023-04-19T17:02:38.550Z,18.60
2023-04-19T17:06:20.482Z,18.60
2023-04-19T17:10:02.321Z,18.50
2023-04-19T17:13:44.035Z,18.40
2023-04-19T17:17:25.872Z,18.30
2023-04-19T17:21:07.688Z,18.30
2023-04-19T17:24:49.406Z,18.20
2023-04-19T17:28:31.161Z,18.10
2023-04-19T17:32:12.927Z,18.10
2023-04-19T17:35:54.632Z,18.00
2023-04-19T17:39:36.435Z,17.90
2023-04-19T17:43:18.152Z,17.80
2023-04-19T17:47:00.013Z,17.70
2023-04-19T17:50:41.788Z,17.50
2023-04-19T17:54:23.797Z,17.40
2023-04-19T17:58:06.067Z,17.40
2023-04-19T18:01:47.868Z,17.30
2023-04-19T18:05:29.625Z,17.20
2023-04-19T18:09:13.108Z,17.10
2023-04-19T18:12:54.873Z,16.90
2023-04-19T18:16:36.689Z,16.80
2023-04-19T18:20:19.981Z,16.70
2023-04-19T18:24:01.744Z,16.60
2023-04-19T18:27:43.975Z,16.50
2023-04-19T18:31:25.794Z,16.50
2023-04-19T18:35:09.982Z,16.40
2023-04-19T18:38:51.795Z,16.30
2023-04-19T18:42:33.648Z,16.20
2023-04-19T18:46:15.818Z,16.10
2023-04-19T18:50:05.217Z,15.90
2023-04-19T18:53:49.311Z,15.80
2023-04-19T18:57:34.497Z,15.80
2023-04-19T19:01:16.700Z,15.60
2023-04-19T19:05:01.963Z,15.50
2023-04-19T19:08:44.444Z,15.30
2023-04-19T19:12:26.339Z,15.20
2023-04-19T19:16:08.120Z,15.10
2023-04-19T19:19:50.082Z,15.00
2023-04-19T19:23:38.313Z,14.90
2023-04-19T19:27:24.456Z,14.80
2023-04-19T19:31:06.662Z,14.70
2023-04-19T19:38:37.480Z,14.40
2023-04-19T19:42:19.733Z,14.40
2023-04-19T19:46:02.267Z,14.30
2023-04-19T19:50:05.852Z,14.20
2023-04-19T19:53:45.754Z,14.00
2023-04-19T20:01:12.337Z,13.80
2023-04-19T20:04:54.386Z,13.70
2023-04-19T20:08:40.125Z,13.60
2023-04-19T20:12:24.423Z,13.40
2023-04-19T20:16:06.847Z,13.30
2023-04-19T20:19:52.135Z,13.20
2023-04-19T20:23:33.869Z,13.10
2023-04-19T20:27:15.638Z,13.00
2023-04-19T20:30:57.642Z,12.90
2023-04-19T20:34:39.842Z,12.80
2023-04-19T20:38:23.354Z,12.70
2023-04-19T20:42:07.226Z,12.50
2023-04-19T20:45:49.012Z,12.50
2023-04-19T20:49:30.963Z,12.40
2023-04-19T20:53:12.737Z,12.30
2023-04-19T20:56:59.579Z,12.20
2023-04-19T21:00:41.377Z,12.10
2023-04-19T21:04:23.173Z,12.00
2023-04-19T21:08:05.312Z,11.90
2023-04-19T21:11:47.043Z,11.80
2023-04-19T21:15:28.879Z,11.70
2023-04-19T21:19:10.652Z,11.60
2023-04-19T21:22:52.505Z,11.50
2023-04-19T21:26:34.466Z,11.40
2023-04-19T21:30:16.410Z,11.30
2023-04-19T21:33:58.178Z,11.20
2023-04-19T21:37:40.014Z,11.10
2023-04-19T21:41:21.766Z,11.10
2023-04-19T21:45:03.792Z,11.00
2023-04-19T21:48:45.516Z,10.90
2023-04-19T21:52:27.297Z,10.80
2023-04-19T21:56:09.052Z,10.70
2023-04-19T21:59:51.127Z,10.70
2023-04-19T22:03:33.334Z,10.60
2023-04-19T22:07:17.941Z,10.60
2023-04-19T22:11:01.170Z,10.50
2023-04-19T22:14:42.945Z,10.40
2023-04-19T22:18:24.723Z,10.30
2023-04-19T22:22:06.454Z,10.30
2023-04-19T22:25:48.183Z,10.20
2023-04-19T22:29:32.139Z,10.10
2023-04-19T22:33:13.837Z,10.00
2023-04-19T22:36:55.697Z,10.00
2023-04-19T22:40:37.649Z,9.90
2023-04-19T22:44:19.390Z,9.90
2023-04-19T22:48:01.536Z,9.80
2023-04-19T22:51:44.821Z,9.80
2023-04-19T22:55:26.631Z,9.70
2023-04-19T22:59:08.441Z,9.60
2023-04-19T23:02:50.302Z,9.60
2023-04-19T23:06:32.538Z,9.50
2023-04-19T23:10:14.322Z,9.40
2023-04-19T23:13:56.379Z,9.40
2023-04-19T23:17:39.346Z,9.40
2023-04-19T23:21:21.195Z,9.30
2023-04-19T23:25:03.053Z,9.20
2023-04-19T23:28:44.835Z,9.20
2023-04-19T23:32:26.606Z,9.10
2023-04-19T23:36:08.605Z,9.00
2023-04-19T23:39:50.315Z,9.00
2023-04-19T23:43:32.106Z,8.90
2023-04-19T23:47:14.135Z,8.80
2023-04-19T23:50:55.982Z,8.80
2023-04-19T23:54:37.708Z,8.70
2023-04-19T23:58:19.467Z,8.70
